Flint, MI (48501)

2:39 PM EDT on May 04, 2015 (GMT -0400)
WestKirk Weather | | Change Station
CLOSE
Current Station
Personal Weather Station
Location: Flint, MI
Elevation: 768 ft
Nearby Weather Stations

Elev 768 ft 43.00 °N, 83.80 °W | Updated 2 minutes ago

Scattered Clouds
Scattered Clouds
74.7 °F
Feels Like 77 °F
N
7.3
Wind Variable Wind from SW

Today
High -- | Low -- °F
--% Chance of Precip.
Yesterday
High -- | Low -- °F
Precip. -- in
6:25 AM 8:39 PM
Full, 100% visible
Pressure 30.04 in
Visibility 10.0 miles
Clouds Scattered Clouds 3700 ft
Heat Index 77 °F
Dew Point 59 °F
Humidity 58%
Rainfall 0.12 in
Snow Depth Not available.
UV 8 out of 12
Pollen 8.60 out of 12
Air Quality Not available.
Flu Activity Regional
METAR KFNT 041753Z 29019G22KT 10SM SCT037 23/14 A3005 RMK AO2 PK WND 27027/1706 SLP172 60004 T02280139 10244 20156 51020

More Conditions Fewer Conditions

Pressure 30.04 in
Visibility 10.0 miles
Clouds Scattered Clouds 3700 ft
Heat Index 77 °F
Dew Point 59 °F
Humidity 58%
Rainfall 0.12 in
Snow Depth Not available.
UV 8 out of 12
Pollen 8.60 out of 12
Air Quality Not available.
Flu Activity Regional
METAR KFNT 041753Z 29019G22KT 10SM SCT037 23/14 A3005 RMK AO2 PK WND 27027/1706 SLP172 60004 T02280139 10244 20156 51020

More Conditions Fewer Conditions

Nepal has a long way to go to dig out and rebuild from a devastating earthquake. We have teamed up with several charities and organizations to make contributing to the relief effort as easy as possible.
How you can help: Portlight Strategies | Red Cross

10-Day Weather Forecast

Almanac

Astronomy

May. 04, 2015 Rise Set
Actual Time
Civil Twilight
Nautical Twilight
Astronomical Twilight
Moon
Length of Visible Light
Length of Day
Tomorrow will be .
, % of the Moon is Illuminated

Today's Extremes

State Highs State Lows

Community

WunderPhotos

Upload Photos

1,818,665 photos uploaded!

WunderBlogs® & News

Nearby

Air Quality

  Air Quality AQ Index Pollutant
Not available.

Snow Depth

Station Depth Elevation

Earthquake Activity

City Distance Mag. Time & Date
Minimum magnitude displayed is 2.5.

Coastal Water Temperatures

Place Temperature

Stations

Nearby Weather Stations

Station Location Temp. Windchill Dew Point Humidity Wind Precip. Elev Updated Type